sensor_id;sensor_type;location;lat;lon;timestamp;pressure;altitude;pressure_sealevel;temperature;humidity
55675;BME280;41562;44.330;23.802;2023-03-04T00:01:12;100320.28;;;4.88;100.00
55675;BME280;41562;44.330;23.802;2023-03-04T00:03:39;100326.72;;;5.03;100.00
55675;BME280;41562;44.330;23.802;2023-03-04T00:06:09;100332.16;;;4.85;100.00
55675;BME280;41562;44.330;23.802;2023-03-04T00:08:40;100345.28;;;4.80;100.00
55675;BME280;41562;44.330;23.802;2023-03-04T00:11:09;100345.03;;;4.81;100.00
55675;BME280;41562;44.330;23.802;2023-03-04T00:13:39;100344.91;;;4.88;100.00
55675;BME280;41562;44.330;23.802;2023-03-04T00:16:06;100341.59;;;4.81;100.00
55675;BME280;41562;44.330;23.802;2023-03-04T00:18:34;100343.78;;;4.84;100.00
55675;BME280;41562;44.330;23.802;2023-03-04T00:21:01;100335.72;;;4.67;100.00
55675;BME280;41562;44.330;23.802;2023-03-04T00:23:32;100332.72;;;4.64;100.00
55675;BME280;41562;44.330;23.802;2023-03-04T00:26:03;100335.38;;;4.64;100.00
55675;BME280;41562;44.330;23.802;2023-03-04T00:28:33;100332.13;;;4.62;100.00
55675;BME280;41562;44.330;23.802;2023-03-04T00:31:00;100331.31;;;4.50;100.00
55675;BME280;41562;44.330;23.802;2023-03-04T00:33:28;100335.03;;;4.49;100.00
55675;BME280;41562;44.330;23.802;2023-03-04T00:35:55;100338.09;;;4.45;100.00
55675;BME280;41562;44.330;23.802;2023-03-04T00:38:24;100329.03;;;4.53;100.00
55675;BME280;41562;44.330;23.802;2023-03-04T00:40:54;100326.16;;;4.55;100.00
55675;BME280;41562;44.330;23.802;2023-03-04T00:43:21;100330.66;;;4.42;100.00
55675;BME280;41562;44.330;23.802;2023-03-04T00:45:49;100325.78;;;4.28;100.00
55675;BME280;41562;44.330;23.802;2023-03-04T00:48:16;100319.47;;;4.40;100.00
55675;BME280;41562;44.330;23.802;2023-03-04T00:50:44;100320.16;;;4.48;100.00
55675;BME280;41562;44.330;23.802;2023-03-04T00:53:11;100317.84;;;4.39;100.00
55675;BME280;41562;44.330;23.802;2023-03-04T00:55:38;100322.22;;;4.34;100.00
55675;BME280;41562;44.330;23.802;2023-03-04T00:58:07;100320.47;;;4.28;100.00
55675;BME280;41562;44.330;23.802;2023-03-04T01:00:40;100325.75;;;4.16;100.00
55675;BME280;41562;44.330;23.802;2023-03-04T01:03:11;100324.47;;;4.19;100.00
55675;BME280;41562;44.330;23.802;2023-03-04T01:05:38;100316.31;;;4.20;100.00
55675;BME280;41562;44.330;23.802;2023-03-04T01:08:06;100308.16;;;4.33;100.00
55675;BME280;41562;44.330;23.802;2023-03-04T01:10:33;100307.16;;;4.34;100.00
55675;BME280;41562;44.330;23.802;2023-03-04T01:13:00;100317.94;;;4.21;100.00
55675;BME280;41562;44.330;23.802;2023-03-04T01:15:33;100320.81;;;4.20;100.00
55675;BME280;41562;44.330;23.802;2023-03-04T01:18:00;100327.81;;;4.14;100.00
55675;BME280;41562;44.330;23.802;2023-03-04T01:20:28;100324.75;;;3.99;100.00
55675;BME280;41562;44.330;23.802;2023-03-04T01:22:58;100329.16;;;4.05;100.00
55675;BME280;41562;44.330;23.802;2023-03-04T01:25:25;100328.50;;;4.10;100.00
55675;BME280;41562;44.330;23.802;2023-03-04T01:27:53;100329.75;;;4.07;100.00
55675;BME280;41562;44.330;23.802;2023-03-04T01:30:21;100335.50;;;4.04;100.00
55675;BME280;41562;44.330;23.802;2023-03-04T01:32:48;100333.44;;;3.76;100.00
55675;BME280;41562;44.330;23.802;2023-03-04T01:35:18;100337.31;;;3.74;100.00
55675;BME280;41562;44.330;23.802;2023-03-04T01:37:45;100333.97;;;3.67;100.00
55675;BME280;41562;44.330;23.802;2023-03-04T01:40:13;100340.50;;;3.64;100.00
55675;BME280;41562;44.330;23.802;2023-03-04T01:42:41;100339.84;;;3.50;100.00
55675;BME280;41562;44.330;23.802;2023-03-04T01:45:17;100330.06;;;3.69;100.00
55675;BME280;41562;44.330;23.802;2023-03-04T01:47:46;100336.13;;;3.88;100.00
55675;BME280;41562;44.330;23.802;2023-03-04T01:50:27;100339.22;;;3.85;100.00
55675;BME280;41562;44.330;23.802;2023-03-04T01:52:55;100336.88;;;3.77;100.00
55675;BME280;41562;44.330;23.802;2023-03-04T01:55:23;100337.81;;;3.82;100.00
55675;BME280;41562;44.330;23.802;2023-03-04T01:57:51;100333.59;;;3.63;100.00
55675;BME280;41562;44.330;23.802;2023-03-04T02:03:03;100329.84;;;3.71;100.00
55675;BME280;41562;44.330;23.802;2023-03-04T02:05:41;100328.41;;;3.56;100.00
55675;BME280;41562;44.330;23.802;2023-03-04T02:08:11;100316.03;;;3.02;100.00
55675;BME280;41562;44.330;23.802;2023-03-04T02:10:41;100322.19;;;3.14;100.00
55675;BME280;41562;44.330;23.802;2023-03-04T02:13:09;100320.34;;;3.33;100.00
55675;BME280;41562;44.330;23.802;2023-03-04T02:15:41;100315.63;;;3.35;100.00
55675;BME280;41562;44.330;23.802;2023-03-04T02:18:18;100312.72;;;3.07;100.00
55675;BME280;41562;44.330;23.802;2023-03-04T02:21:04;100314.03;;;2.98;100.00
55675;BME280;41562;44.330;23.802;2023-03-04T02:26:23;100307.59;;;3.12;100.00
55675;BME280;41562;44.330;23.802;2023-03-04T02:28:52;100310.97;;;3.19;100.00
55675;BME280;41562;44.330;23.802;2023-03-04T02:31:31;100309.94;;;3.20;100.00
55675;BME280;41562;44.330;23.802;2023-03-04T02:34:05;100309.00;;;3.14;100.00
55675;BME280;41562;44.330;23.802;2023-03-04T02:36:33;100313.47;;;3.14;100.00
55675;BME280;41562;44.330;23.802;2023-03-04T02:39:05;100306.03;;;3.22;100.00
55675;BME280;41562;44.330;23.802;2023-03-04T02:41:33;100306.97;;;3.10;100.00
55675;BME280;41562;44.330;23.802;2023-03-04T02:44:01;100296.41;;;2.92;100.00
55675;BME280;41562;44.330;23.802;2023-03-04T02:46:28;100292.81;;;3.04;100.00
55675;BME280;41562;44.330;23.802;2023-03-04T02:48:55;100290.28;;;3.16;100.00
55675;BME280;41562;44.330;23.802;2023-03-04T02:51:22;100289.75;;;3.26;100.00
55675;BME280;41562;44.330;23.802;2023-03-04T02:53:50;100287.63;;;2.98;100.00
55675;BME280;41562;44.330;23.802;2023-03-04T02:56:17;100280.75;;;3.15;100.00
55675;BME280;41562;44.330;23.802;2023-03-04T02:58:44;100283.78;;;3.30;100.00
55675;BME280;41562;44.330;23.802;2023-03-04T03:01:11;100284.84;;;3.11;100.00
55675;BME280;41562;44.330;23.802;2023-03-04T03:03:38;100279.88;;;3.03;100.00
55675;BME280;41562;44.330;23.802;2023-03-04T03:06:08;100275.81;;;3.18;100.00
55675;BME280;41562;44.330;23.802;2023-03-04T03:08:36;100277.44;;;3.19;100.00
55675;BME280;41562;44.330;23.802;2023-03-04T03:11:04;100269.38;;;3.14;100.00
55675;BME280;41562;44.330;23.802;2023-03-04T03:13:34;100267.16;;;3.11;100.00
55675;BME280;41562;44.330;23.802;2023-03-04T03:16:02;100266.50;;;2.79;100.00
55675;BME280;41562;44.330;23.802;2023-03-04T03:18:30;100260.78;;;2.64;100.00
55675;BME280;41562;44.330;23.802;2023-03-04T03:20:57;100266.28;;;2.81;100.00
55675;BME280;41562;44.330;23.802;2023-03-04T03:23:24;100271.72;;;2.43;100.00
55675;BME280;41562;44.330;23.802;2023-03-04T03:25:51;100271.91;;;2.66;100.00
55675;BME280;41562;44.330;23.802;2023-03-04T03:28:19;100274.72;;;2.90;100.00
55675;BME280;41562;44.330;23.802;2023-03-04T03:30:46;100277.16;;;3.09;100.00
55675;BME280;41562;44.330;23.802;2023-03-04T03:33:13;100265.59;;;2.86;100.00
55675;BME280;41562;44.330;23.802;2023-03-04T03:35:41;100264.44;;;2.63;100.00
55675;BME280;41562;44.330;23.802;2023-03-04T03:38:08;100269.38;;;2.53;100.00
55675;BME280;41562;44.330;23.802;2023-03-04T03:40:36;100273.00;;;2.59;100.00
55675;BME280;41562;44.330;23.802;2023-03-04T03:43:03;100264.56;;;2.50;100.00
55675;BME280;41562;44.330;23.802;2023-03-04T03:45:31;100269.91;;;2.43;100.00
55675;BME280;41562;44.330;23.802;2023-03-04T03:47:58;100280.66;;;2.42;100.00
55675;BME280;41562;44.330;23.802;2023-03-04T03:50:25;100271.41;;;2.33;100.00
55675;BME280;41562;44.330;23.802;2023-03-04T03:52:53;100273.31;;;2.26;100.00
55675;BME280;41562;44.330;23.802;2023-03-04T03:55:20;100277.31;;;2.53;100.00
55675;BME280;41562;44.330;23.802;2023-03-04T03:57:48;100268.59;;;2.53;100.00
55675;BME280;41562;44.330;23.802;2023-03-04T04:00:16;100266.81;;;2.71;100.00
55675;BME280;41562;44.330;23.802;2023-03-04T04:02:43;100264.25;;;2.40;100.00
55675;BME280;41562;44.330;23.802;2023-03-04T04:05:11;100268.53;;;2.59;100.00
55675;BME280;41562;44.330;23.802;2023-03-04T04:07:38;100262.28;;;2.54;100.00
55675;BME280;41562;44.330;23.802;2023-03-04T04:10:06;100258.16;;;2.82;100.00
55675;BME280;41562;44.330;23.802;2023-03-04T04:12:36;100259.44;;;2.73;100.00
55675;BME280;41562;44.330;23.802;2023-03-04T04:15:04;100262.81;;;2.62;100.00
55675;BME280;41562;44.330;23.802;2023-03-04T04:17:32;100260.44;;;2.54;100.00
55675;BME280;41562;44.330;23.802;2023-03-04T04:19:59;100255.16;;;2.54;100.00
55675;BME280;41562;44.330;23.802;2023-03-04T04:22:26;100254.63;;;2.70;100.00
55675;BME280;41562;44.330;23.802;2023-03-04T04:24:53;100261.66;;;2.58;100.00
55675;BME280;41562;44.330;23.802;2023-03-04T04:27:21;100268.72;;;2.82;100.00
55675;BME280;41562;44.330;23.802;2023-03-04T04:29:48;100275.88;;;2.75;100.00
55675;BME280;41562;44.330;23.802;2023-03-04T04:32:15;100273.91;;;2.71;100.00
55675;BME280;41562;44.330;23.802;2023-03-04T04:34:43;100272.38;;;2.81;100.00
55675;BME280;41562;44.330;23.802;2023-03-04T04:37:10;100269.28;;;2.84;100.00
55675;BME280;41562;44.330;23.802;2023-03-04T04:39:37;100274.53;;;2.66;100.00
55675;BME280;41562;44.330;23.802;2023-03-04T04:42:07;100272.84;;;2.72;100.00
55675;BME280;41562;44.330;23.802;2023-03-04T04:44:35;100270.38;;;2.77;100.00
55675;BME280;41562;44.330;23.802;2023-03-04T04:47:02;100278.66;;;2.80;100.00
55675;BME280;41562;44.330;23.802;2023-03-04T04:49:30;100272.66;;;3.10;100.00
55675;BME280;41562;44.330;23.802;2023-03-04T04:52:01;100280.06;;;3.01;100.00
55675;BME280;41562;44.330;23.802;2023-03-04T04:54:29;100284.56;;;3.01;100.00
55675;BME280;41562;44.330;23.802;2023-03-04T04:56:57;100286.31;;;3.07;100.00
55675;BME280;41562;44.330;23.802;2023-03-04T04:59:25;100287.63;;;2.98;100.00
55675;BME280;41562;44.330;23.802;2023-03-04T05:01:53;100289.63;;;3.02;100.00
55675;BME280;41562;44.330;23.802;2023-03-04T05:04:23;100290.44;;;3.03;100.00
55675;BME280;41562;44.330;23.802;2023-03-04T05:06:55;100297.16;;;6.53;100.00
55675;BME280;41562;44.330;23.802;2023-03-04T05:09:23;100304.38;;;8.79;94.05
55675;BME280;41562;44.330;23.802;2023-03-04T05:11:52;100313.66;;;9.86;86.02
55675;BME280;41562;44.330;23.802;2023-03-04T05:14:20;100314.25;;;10.64;87.97
55675;BME280;41562;44.330;23.802;2023-03-04T05:16:48;100302.78;;;10.33;92.14
55675;BME280;41562;44.330;23.802;2023-03-04T05:19:16;100306.72;;;7.80;90.75
55675;BME280;41562;44.330;23.802;2023-03-04T05:21:44;100302.50;;;5.51;99.43
55675;BME280;41562;44.330;23.802;2023-03-04T05:24:12;100299.09;;;4.41;100.00
55675;BME280;41562;44.330;23.802;2023-03-04T05:26:39;100305.81;;;4.02;100.00
55675;BME280;41562;44.330;23.802;2023-03-04T05:29:06;100299.09;;;4.99;100.00
55675;BME280;41562;44.330;23.802;2023-03-04T05:31:34;100311.72;;;5.89;100.00
55675;BME280;41562;44.330;23.802;2023-03-04T05:34:01;100308.41;;;4.32;100.00
55675;BME280;41562;44.330;23.802;2023-03-04T05:36:28;100306.91;;;3.83;100.00
55675;BME280;41562;44.330;23.802;2023-03-04T05:39:00;100312.91;;;3.60;100.00
55675;BME280;41562;44.330;23.802;2023-03-04T05:41:44;100316.81;;;3.39;100.00
55675;BME280;41562;44.330;23.802;2023-03-04T05:44:11;100310.41;;;3.65;100.00
55675;BME280;41562;44.330;23.802;2023-03-04T05:46:38;100316.44;;;3.36;100.00
55675;BME280;41562;44.330;23.802;2023-03-04T05:49:05;100319.03;;;3.24;100.00
55675;BME280;41562;44.330;23.802;2023-03-04T05:51:33;100331.94;;;3.50;100.00
55675;BME280;41562;44.330;23.802;2023-03-04T05:54:08;100333.97;;;3.48;100.00
55675;BME280;41562;44.330;23.802;2023-03-04T05:56:46;100327.28;;;3.16;100.00
55675;BME280;41562;44.330;23.802;2023-03-04T05:59:22;100337.25;;;3.14;100.00
55675;BME280;41562;44.330;23.802;2023-03-04T06:01:50;100338.94;;;3.27;100.00
55675;BME280;41562;44.330;23.802;2023-03-04T06:04:18;100340.97;;;3.24;100.00
55675;BME280;41562;44.330;23.802;2023-03-04T06:06:45;100332.16;;;3.12;100.00
55675;BME280;41562;44.330;23.802;2023-03-04T06:09:21;100337.84;;;3.16;100.00
55675;BME280;41562;44.330;23.802;2023-03-04T06:11:55;100344.78;;;2.67;100.00
55675;BME280;41562;44.330;23.802;2023-03-04T06:14:23;100343.34;;;2.71;100.00
55675;BME280;41562;44.330;23.802;2023-03-04T06:16:50;100345.16;;;3.14;100.00
55675;BME280;41562;44.330;23.802;2023-03-04T06:19:36;100345.66;;;3.04;100.00
55675;BME280;41562;44.330;23.802;2023-03-04T06:22:04;100351.44;;;2.76;100.00
55675;BME280;41562;44.330;23.802;2023-03-04T06:24:31;100359.31;;;2.58;100.00
55675;BME280;41562;44.330;23.802;2023-03-04T06:26:58;100357.34;;;2.72;100.00
55675;BME280;41562;44.330;23.802;2023-03-04T06:29:25;100369.44;;;2.79;100.00
55675;BME280;41562;44.330;23.802;2023-03-04T06:31:55;100365.47;;;2.95;100.00
55675;BME280;41562;44.330;23.802;2023-03-04T06:34:27;100361.59;;;3.16;100.00
55675;BME280;41562;44.330;23.802;2023-03-04T06:37:02;100360.13;;;3.38;100.00
55675;BME280;41562;44.330;23.802;2023-03-04T06:39:35;100365.41;;;3.56;100.00
55675;BME280;41562;44.330;23.802;2023-03-04T06:42:02;100371.13;;;3.17;100.00
55675;BME280;41562;44.330;23.802;2023-03-04T06:44:40;100373.00;;;3.35;100.00
55675;BME280;41562;44.330;23.802;2023-03-04T06:47:17;100364.47;;;3.14;100.00
55675;BME280;41562;44.330;23.802;2023-03-04T06:49:45;100371.66;;;3.44;100.00
55675;BME280;41562;44.330;23.802;2023-03-04T06:52:15;100371.50;;;3.39;100.00
55675;BME280;41562;44.330;23.802;2023-03-04T06:54:46;100357.78;;;3.67;100.00
55675;BME280;41562;44.330;23.802;2023-03-04T06:57:13;100359.97;;;3.70;100.00
55675;BME280;41562;44.330;23.802;2023-03-04T06:59:40;100356.72;;;3.68;100.00
55675;BME280;41562;44.330;23.802;2023-03-04T07:02:11;100363.59;;;3.87;100.00
55675;BME280;41562;44.330;23.802;2023-03-04T07:04:39;100365.97;;;3.77;100.00
55675;BME280;41562;44.330;23.802;2023-03-04T07:07:13;100362.78;;;3.38;100.00
55675;BME280;41562;44.330;23.802;2023-03-04T07:09:46;100367.03;;;3.39;100.00
55675;BME280;41562;44.330;23.802;2023-03-04T07:12:19;100370.34;;;3.35;100.00
55675;BME280;41562;44.330;23.802;2023-03-04T07:14:58;100363.88;;;3.12;100.00
55675;BME280;41562;44.330;23.802;2023-03-04T07:17:32;100358.00;;;3.65;100.00
55675;BME280;41562;44.330;23.802;2023-03-04T07:20:01;100365.84;;;3.72;100.00
55675;BME280;41562;44.330;23.802;2023-03-04T07:22:28;100366.69;;;3.84;100.00
55675;BME280;41562;44.330;23.802;2023-03-04T07:24:56;100368.34;;;3.67;100.00
55675;BME280;41562;44.330;23.802;2023-03-04T07:27:23;100368.66;;;3.58;100.00
55675;BME280;41562;44.330;23.802;2023-03-04T07:29:50;100369.41;;;3.47;100.00
55675;BME280;41562;44.330;23.802;2023-03-04T07:32:17;100374.59;;;3.72;100.00
55675;BME280;41562;44.330;23.802;2023-03-04T07:34:44;100356.03;;;3.90;100.00
55675;BME280;41562;44.330;23.802;2023-03-04T07:37:12;100356.84;;;3.91;100.00
55675;BME280;41562;44.330;23.802;2023-03-04T07:39:39;100361.31;;;3.90;100.00
55675;BME280;41562;44.330;23.802;2023-03-04T07:42:06;100360.84;;;3.93;100.00
55675;BME280;41562;44.330;23.802;2023-03-04T07:44:39;100363.78;;;3.55;100.00
55675;BME280;41562;44.330;23.802;2023-03-04T07:47:11;100363.06;;;3.67;100.00
55675;BME280;41562;44.330;23.802;2023-03-04T07:49:38;100361.22;;;3.97;100.00
55675;BME280;41562;44.330;23.802;2023-03-04T07:52:06;100354.84;;;3.86;100.00
55675;BME280;41562;44.330;23.802;2023-03-04T07:54:34;100356.84;;;3.91;100.00
55675;BME280;41562;44.330;23.802;2023-03-04T07:57:02;100357.22;;;4.06;100.00
55675;BME280;41562;44.330;23.802;2023-03-04T07:59:29;100364.00;;;4.02;100.00
55675;BME280;41562;44.330;23.802;2023-03-04T08:02:03;100360.38;;;3.85;100.00
55675;BME280;41562;44.330;23.802;2023-03-04T08:04:31;100359.44;;;4.09;100.00
55675;BME280;41562;44.330;23.802;2023-03-04T08:07:04;100360.16;;;4.16;100.00
55675;BME280;41562;44.330;23.802;2023-03-04T08:09:31;100363.88;;;4.38;100.00
55675;BME280;41562;44.330;23.802;2023-03-04T08:11:59;100359.78;;;4.13;100.00
55675;BME280;41562;44.330;23.802;2023-03-04T08:14:26;100361.63;;;4.12;100.00
55675;BME280;41562;44.330;23.802;2023-03-04T08:17:07;100357.75;;;4.26;100.00
55675;BME280;41562;44.330;23.802;2023-03-04T08:19:35;100361.53;;;4.30;100.00
55675;BME280;41562;44.330;23.802;2023-03-04T08:22:05;100353.03;;;4.28;100.00
55675;BME280;41562;44.330;23.802;2023-03-04T08:24:32;100359.84;;;4.36;100.00
55675;BME280;41562;44.330;23.802;2023-03-04T08:27:00;100355.09;;;4.26;100.00
55675;BME280;41562;44.330;23.802;2023-03-04T08:29:37;100356.75;;;4.51;100.00
55675;BME280;41562;44.330;23.802;2023-03-04T08:32:05;100355.28;;;4.55;100.00
55675;BME280;41562;44.330;23.802;2023-03-04T08:34:38;100357.56;;;4.63;100.00
55675;BME280;41562;44.330;23.802;2023-03-04T08:37:08;100356.22;;;4.72;100.00
55675;BME280;41562;44.330;23.802;2023-03-04T08:39:36;100354.28;;;4.79;100.00
55675;BME280;41562;44.330;23.802;2023-03-04T08:42:08;100354.25;;;4.91;100.00
55675;BME280;41562;44.330;23.802;2023-03-04T08:44:42;100346.78;;;5.11;100.00
55675;BME280;41562;44.330;23.802;2023-03-04T08:47:10;100350.66;;;5.20;100.00
55675;BME280;41562;44.330;23.802;2023-03-04T08:49:37;100344.03;;;5.46;100.00
55675;BME280;41562;44.330;23.802;2023-03-04T08:52:04;100350.16;;;5.46;100.00
55675;BME280;41562;44.330;23.802;2023-03-04T08:54:34;100348.22;;;5.42;100.00
55675;BME280;41562;44.330;23.802;2023-03-04T08:57:01;100343.94;;;5.41;100.00
55675;BME280;41562;44.330;23.802;2023-03-04T08:59:29;100346.13;;;5.44;100.00
55675;BME280;41562;44.330;23.802;2023-03-04T09:01:56;100337.34;;;5.55;100.00
55675;BME280;41562;44.330;23.802;2023-03-04T09:04:26;100336.66;;;5.48;100.00
55675;BME280;41562;44.330;23.802;2023-03-04T09:06:55;100325.94;;;5.54;100.00
55675;BME280;41562;44.330;23.802;2023-03-04T09:09:23;100329.22;;;5.73;100.00
55675;BME280;41562;44.330;23.802;2023-03-04T09:11:53;100326.47;;;5.68;100.00
55675;BME280;41562;44.330;23.802;2023-03-04T09:14:20;100319.13;;;5.87;100.00
55675;BME280;41562;44.330;23.802;2023-03-04T09:16:48;100318.53;;;5.85;100.00
55675;BME280;41562;44.330;23.802;2023-03-04T09:19:19;100318.03;;;5.99;100.00
55675;BME280;41562;44.330;23.802;2023-03-04T09:21:56;100319.59;;;6.12;100.00
55675;BME280;41562;44.330;23.802;2023-03-04T09:24:25;100324.47;;;6.03;100.00
55675;BME280;41562;44.330;23.802;2023-03-04T09:26:53;100322.47;;;6.11;100.00
55675;BME280;41562;44.330;23.802;2023-03-04T09:29:21;100330.31;;;6.34;100.00
55675;BME280;41562;44.330;23.802;2023-03-04T09:31:48;100323.22;;;6.23;100.00
55675;BME280;41562;44.330;23.802;2023-03-04T09:34:20;100316.63;;;6.25;100.00
55675;BME280;41562;44.330;23.802;2023-03-04T09:36:59;100313.06;;;6.20;100.00
55675;BME280;41562;44.330;23.802;2023-03-04T09:39:26;100309.88;;;6.51;100.00
55675;BME280;41562;44.330;23.802;2023-03-04T09:41:57;100316.41;;;6.43;100.00
55675;BME280;41562;44.330;23.802;2023-03-04T09:44:29;100320.50;;;6.34;100.00
55675;BME280;41562;44.330;23.802;2023-03-04T09:47:11;100315.66;;;6.31;100.00
55675;BME280;41562;44.330;23.802;2023-03-04T09:49:42;100311.63;;;6.45;100.00
55675;BME280;41562;44.330;23.802;2023-03-04T09:55:21;100300.56;;;6.70;100.00
55675;BME280;41562;44.330;23.802;2023-03-04T09:57:52;100298.81;;;8.85;100.00
55675;BME280;41562;44.330;23.802;2023-03-04T10:00:41;100299.78;;;10.75;95.24
55675;BME280;41562;44.330;23.802;2023-03-04T10:03:16;100295.13;;;8.50;93.07
55675;BME280;41562;44.330;23.802;2023-03-04T10:05:53;100299.16;;;8.20;95.30
55675;BME280;41562;44.330;23.802;2023-03-04T10:13:51;100282.94;;;6.81;100.00
55675;BME280;41562;44.330;23.802;2023-03-04T10:16:22;100272.94;;;6.88;100.00
55675;BME280;41562;44.330;23.802;2023-03-04T10:18:58;100281.63;;;6.83;100.00
55675;BME280;41562;44.330;23.802;2023-03-04T10:21:36;100278.56;;;6.92;100.00
55675;BME280;41562;44.330;23.802;2023-03-04T10:24:13;100277.59;;;6.98;100.00
55675;BME280;41562;44.330;23.802;2023-03-04T10:26:44;100269.97;;;7.28;100.00
55675;BME280;41562;44.330;23.802;2023-03-04T10:29:17;100267.22;;;7.18;100.00
55675;BME280;41562;44.330;23.802;2023-03-04T10:31:49;100264.59;;;7.23;100.00
55675;BME280;41562;44.330;23.802;2023-03-04T10:34:19;100258.44;;;7.39;100.00
55675;BME280;41562;44.330;23.802;2023-03-04T10:36:59;100249.34;;;7.13;100.00
55675;BME280;41562;44.330;23.802;2023-03-04T10:39:38;100247.78;;;7.39;100.00
55675;BME280;41562;44.330;23.802;2023-03-04T10:44:55;100237.84;;;7.56;100.00
55675;BME280;41562;44.330;23.802;2023-03-04T10:47:27;100240.06;;;7.64;100.00
55675;BME280;41562;44.330;23.802;2023-03-04T10:49:57;100237.44;;;7.70;100.00
55675;BME280;41562;44.330;23.802;2023-03-04T10:55:03;100222.75;;;7.94;100.00
55675;BME280;41562;44.330;23.802;2023-03-04T10:57:37;100226.03;;;8.06;98.20
55675;BME280;41562;44.330;23.802;2023-03-04T11:00:28;100209.47;;;7.99;100.00
55675;BME280;41562;44.330;23.802;2023-03-04T11:06:19;100201.63;;;8.14;99.63
55675;BME280;41562;44.330;23.802;2023-03-04T11:08:55;100199.34;;;8.75;100.00
55675;BME280;41562;44.330;23.802;2023-03-04T11:11:30;100189.66;;;9.21;97.58
55675;BME280;41562;44.330;23.802;2023-03-04T11:14:00;100187.03;;;9.56;92.97
55675;BME280;41562;44.330;23.802;2023-03-04T11:16:31;100189.16;;;9.34;94.40
55675;BME280;41562;44.330;23.802;2023-03-04T11:19:29;100177.97;;;9.62;92.83
55675;BME280;41562;44.330;23.802;2023-03-04T11:21:58;100171.84;;;9.72;94.54
55675;BME280;41562;44.330;23.802;2023-03-04T11:24:33;100176.09;;;9.63;92.90
55675;BME280;41562;44.330;23.802;2023-03-04T11:27:28;100160.34;;;9.97;91.52
55675;BME280;41562;44.330;23.802;2023-03-04T11:32:45;100148.88;;;9.96;92.08
55675;BME280;41562;44.330;23.802;2023-03-04T11:35:34;100149.38;;;10.14;91.09
55675;BME280;41562;44.330;23.802;2023-03-04T11:38:23;100138.63;;;10.54;89.90
55675;BME280;41562;44.330;23.802;2023-03-04T11:41:16;100135.22;;;10.13;90.32
55675;BME280;41562;44.330;23.802;2023-03-04T11:43:46;100128.03;;;10.03;91.64
55675;BME280;41562;44.330;23.802;2023-03-04T11:51:54;100113.50;;;10.45;99.30
55675;BME280;41562;44.330;23.802;2023-03-04T12:05:23;100091.13;;;10.90;86.82
55675;BME280;41562;44.330;23.802;2023-03-04T12:08:22;100091.22;;;11.14;85.67
55675;BME280;41562;44.330;23.802;2023-03-04T12:16:14;100083.59;;;10.97;85.00
55675;BME280;41562;44.330;23.802;2023-03-04T12:38:34;100046.28;;;12.02;76.84
55675;BME280;41562;44.330;23.802;2023-03-04T12:52:12;100029.97;;;12.23;73.71
55675;BME280;41562;44.330;23.802;2023-03-04T12:54:48;100029.31;;;12.12;75.35
55675;BME280;41562;44.330;23.802;2023-03-04T12:57:25;100024.09;;;11.97;75.48
55675;BME280;41562;44.330;23.802;2023-03-04T13:00:02;100012.19;;;12.08;81.87
55675;BME280;41562;44.330;23.802;2023-03-04T13:05:43;99999.06;;;12.30;75.11
55675;BME280;41562;44.330;23.802;2023-03-04T13:08:57;99997.94;;;11.89;75.37
55675;BME280;41562;44.330;23.802;2023-03-04T13:16:46;99987.09;;;12.23;74.71
55675;BME280;41562;44.330;23.802;2023-03-04T13:25:36;99969.63;;;12.25;75.99
55675;BME280;41562;44.330;23.802;2023-03-04T13:35:56;99943.91;;;12.24;76.52
55675;BME280;41562;44.330;23.802;2023-03-04T13:43:48;99943.56;;;12.31;76.43
55675;BME280;41562;44.330;23.802;2023-03-04T13:49:34;99931.81;;;12.45;75.23
55675;BME280;41562;44.330;23.802;2023-03-04T13:58:22;99911.94;;;12.46;71.72
55675;BME280;41562;44.330;23.802;2023-03-04T14:00:53;99907.00;;;12.54;73.25
55675;BME280;41562;44.330;23.802;2023-03-04T14:03:26;99902.47;;;12.86;71.33
55675;BME280;41562;44.330;23.802;2023-03-04T14:06:21;99904.38;;;12.67;70.46
55675;BME280;41562;44.330;23.802;2023-03-04T14:08:53;99894.84;;;12.42;70.75
55675;BME280;41562;44.330;23.802;2023-03-04T14:13:47;99897.53;;;12.42;66.73
55675;BME280;41562;44.330;23.802;2023-03-04T14:16:26;99898.63;;;12.23;67.49
55675;BME280;41562;44.330;23.802;2023-03-04T14:19:05;99892.97;;;12.05;68.30
55675;BME280;41562;44.330;23.802;2023-03-04T14:21:34;99882.47;;;12.09;69.69
55675;BME280;41562;44.330;23.802;2023-03-04T14:24:07;99888.50;;;12.01;69.00
55675;BME280;41562;44.330;23.802;2023-03-04T14:26:43;99882.38;;;11.95;69.36
55675;BME280;41562;44.330;23.802;2023-03-04T14:29:24;99872.81;;;12.08;68.29
55675;BME280;41562;44.330;23.802;2023-03-04T14:31:59;99871.09;;;12.36;69.48
55675;BME280;41562;44.330;23.802;2023-03-04T14:34:35;99870.13;;;12.64;66.67
55675;BME280;41562;44.330;23.802;2023-03-04T14:37:32;99872.72;;;12.69;66.57
55675;BME280;41562;44.330;23.802;2023-03-04T14:40:04;99867.00;;;12.57;71.78
55675;BME280;41562;44.330;23.802;2023-03-04T14:42:39;99865.94;;;12.58;68.16
55675;BME280;41562;44.330;23.802;2023-03-04T14:45:15;99856.69;;;12.32;67.72
55675;BME280;41562;44.330;23.802;2023-03-04T14:47:45;99857.03;;;12.25;67.07
55675;BME280;41562;44.330;23.802;2023-03-04T14:50:15;99857.97;;;12.34;67.73
55675;BME280;41562;44.330;23.802;2023-03-04T14:52:48;99855.72;;;12.23;68.26
55675;BME280;41562;44.330;23.802;2023-03-04T14:55:17;99864.00;;;12.26;66.90
55675;BME280;41562;44.330;23.802;2023-03-04T14:57:47;99850.81;;;12.11;67.96